createdAt,value
2018-12-07T00:04:06.565Z,17.27
2018-12-07T00:06:35.146Z,18.83
2018-12-07T00:11:48.590Z,16.73
2018-12-07T00:14:17.229Z,18.27
2018-12-07T00:16:45.854Z,18.57
2018-12-07T00:19:14.654Z,19.20
2018-12-07T00:21:43.069Z,19.70
2018-12-07T00:24:11.771Z,18.20
2018-12-07T00:26:40.399Z,19.50
2018-12-07T00:29:08.735Z,14.53
2018-12-07T00:31:37.682Z,17.13
2018-12-07T00:34:06.004Z,13.83
2018-12-07T00:36:34.759Z,16.57
2018-12-07T00:39:03.454Z,16.90
2018-12-07T00:41:32.439Z,14.90
2018-12-07T00:44:01.024Z,14.73
2018-12-07T00:46:29.594Z,15.50
2018-12-07T00:48:58.201Z,15.83
2018-12-07T00:51:26.909Z,14.10
2018-12-07T00:53:55.595Z,15.20
2018-12-07T00:56:23.905Z,16.20
2018-12-07T00:58:52.399Z,14.63
2018-12-07T01:01:21.154Z,10.03
2018-12-07T01:03:49.651Z,13.30
2018-12-07T01:06:18.840Z,13.93
2018-12-07T01:08:47.470Z,13.97
2018-12-07T01:11:16.262Z,15.03
2018-12-07T01:13:44.849Z,14.97
2018-12-07T01:16:13.250Z,14.50
2018-12-07T01:18:42.219Z,13.23
2018-12-07T01:21:10.727Z,10.70
2018-12-07T01:23:39.504Z,11.47
2018-12-07T01:26:08.140Z,11.73
2018-12-07T01:28:36.795Z,11.53
2018-12-07T01:31:05.510Z,10.83
2018-12-07T01:33:33.860Z,8.77
2018-12-07T01:36:02.604Z,8.57
2018-12-07T01:38:31.904Z,9.00
2018-12-07T01:41:00.569Z,10.50
2018-12-07T01:43:29.044Z,10.17
2018-12-07T01:45:57.459Z,8.97
2018-12-07T01:48:25.869Z,6.93
2018-12-07T01:50:54.337Z,8.67
2018-12-07T01:53:22.729Z,8.43
2018-12-07T01:55:51.319Z,8.90
2018-12-07T01:58:19.659Z,9.40
2018-12-07T02:00:48.209Z,8.80
2018-12-07T02:03:16.689Z,9.10
2018-12-07T02:05:44.978Z,9.23
2018-12-07T02:08:13.449Z,7.90
2018-12-07T02:10:41.960Z,8.47
2018-12-07T02:13:11.119Z,7.60
2018-12-07T02:15:39.427Z,7.67
2018-12-07T02:18:08.039Z,9.73
2018-12-07T02:20:36.695Z,9.87
2018-12-07T02:23:05.147Z,9.43
2018-12-07T02:25:35.440Z,9.67
2018-12-07T02:28:04.297Z,10.70
2018-12-07T02:30:33.486Z,8.57
2018-12-07T02:33:02.432Z,10.30
2018-12-07T02:35:30.802Z,9.60
2018-12-07T02:37:59.637Z,11.63
2018-12-07T02:40:28.246Z,11.60
2018-12-07T02:42:56.735Z,11.87
2018-12-07T02:45:25.297Z,10.80
2018-12-07T02:47:54.638Z,9.70
2018-12-07T02:50:23.285Z,11.73
2018-12-07T02:52:51.641Z,11.23
2018-12-07T02:55:20.392Z,11.07
2018-12-07T02:57:49.003Z,10.20
2018-12-07T03:00:17.721Z,9.43
2018-12-07T03:02:46.053Z,11.03
2018-12-07T03:05:14.719Z,10.27
2018-12-07T03:07:43.319Z,8.60
2018-12-07T03:10:11.767Z,7.87
2018-12-07T03:12:40.218Z,7.87
2018-12-07T03:15:09.746Z,5.57
2018-12-07T03:17:38.394Z,6.30
2018-12-07T03:20:06.692Z,6.13
2018-12-07T03:22:35.998Z,7.33
2018-12-07T03:25:05.695Z,6.83
2018-12-07T03:27:34.051Z,6.80
2018-12-07T03:30:02.555Z,5.83
2018-12-07T03:32:30.960Z,5.30
2018-12-07T03:34:59.459Z,5.20
2018-12-07T03:37:27.955Z,5.50
2018-12-07T03:39:56.542Z,4.93
2018-12-07T03:42:25.180Z,5.37
2018-12-07T03:44:53.532Z,6.03
2018-12-07T03:47:21.954Z,6.00
2018-12-07T03:49:50.832Z,5.63
2018-12-07T03:53:37.627Z,5.53
2018-12-07T03:56:27.602Z,6.57
2018-12-07T04:01:59.358Z,7.57
